Terminal Aerodrome Forecast
Issued by NWS Cleveland, OH

Home | Current Version | Previous Version | Graphics & Text | Print | Product List | Glossary On
Versions: 1 2 3 4 5 6 7 8 9 10 11 12 13 14 15 16 17
533
FTUS41 KCLE 252333
TAFERI
TAF
KERI 252333Z 2600/2624 26020G30KT P6SM SCT015 OVC025
      TEMPO 2600/2602 5SM -SHSN BKN015 OVC025
     FM260200 27015G25KT 5SM -SHSN OVC015
     FM261200 26010G20KT P6SM -SHSN OVC020
     FM262000 22010G20KT P6SM SCT025 OVC100=

USA.gov is the U.S. government's official web portal to all federal, state and local government web resources and services.